Time;durP1;ratioP1;P1;durP2;ratioP2;P2;SDS_P1;SDS_P2;PMS_P1;PMS_P2;Temp;Humidity;BMP_temperature;BMP_pressure;BME280_temperature;BME280_humidity;BME280_pressure;Samples;Min_cycle;Max_cycle;Signal;HPM_P1;HPM_P2
2023/02/01 00:03:08;;;;;;;15.70;10.18;;;;;;;4.26;70.18;100348.81;10427249;28;20049;-66
2023/02/01 00:08:09;;;;;;;14.93;9.20;;;;;;;4.34;69.89;100352.06;10426786;28;20060;-66
2023/02/01 00:13:11;;;;;;;15.60;9.48;;;;;;;4.42;69.75;100338.88;10426916;28;20072;-65
2023/02/01 00:18:13;;;;;;;13.23;9.13;;;;;;;4.45;69.70;100333.63;10427860;28;20067;-65
2023/02/01 00:23:14;;;;;;;13.35;7.70;;;;;;;4.53;69.48;100314.41;10427525;28;20492;-66
2023/02/01 00:28:16;;;;;;;13.52;8.38;;;;;;;4.38;69.76;100319.16;10425135;28;20060;-66
2023/02/01 00:33:18;;;;;;;12.43;7.20;;;;;;;4.33;70.14;100318.44;10426056;28;20049;-65
2023/02/01 00:38:19;;;;;;;9.43;6.88;;;;;;;4.42;69.92;100344.91;10426311;28;20224;-66
2023/02/01 00:43:21;;;;;;;12.73;7.68;;;;;;;4.44;69.73;100337.97;10425925;28;20508;-65
2023/02/01 00:48:22;;;;;;;10.45;5.95;;;;;;;4.53;69.55;100324.75;10424962;28;20048;-65
2023/02/01 00:53:24;;;;;;;9.70;5.57;;;;;;;4.58;69.45;100329.78;10425568;28;20580;-65
2023/02/01 00:58:26;;;;;;;8.80;6.10;;;;;;;4.64;69.10;100314.91;10425654;28;20504;-65
2023/02/01 01:03:29;;;;;;;10.38;5.05;;;;;;;4.67;69.10;100316.56;10424914;28;20045;-65
2023/02/01 01:08:31;;;;;;;10.35;5.03;;;;;;;4.75;68.68;100312.00;10424668;28;20057;-66
2023/02/01 01:13:33;;;;;;;8.15;5.45;;;;;;;4.78;68.69;100321.44;10425807;28;20048;-66
2023/02/01 01:18:36;;;;;;;9.55;5.47;;;;;;;4.82;68.47;100326.47;10425481;28;20048;-66
2023/02/01 01:23:37;;;;;;;9.23;5.45;;;;;;;4.93;68.33;100332.19;10425135;28;20052;-65
2023/02/01 01:28:39;;;;;;;8.50;5.20;;;;;;;4.88;68.52;100338.41;10421042;28;20308;-66
2023/02/01 01:33:43;;;;;;;8.75;5.40;;;;;;;4.98;68.34;100339.81;10424408;28;20048;-65
2023/02/01 01:38:45;;;;;;;8.85;5.35;;;;;;;4.98;68.34;100334.63;10424508;28;20045;-66
2023/02/01 01:44:06;;;;;;;9.90;5.70;;;;;;;4.88;68.26;100317.66;10424576;28;20319;-66
2023/02/01 01:49:12;;;;;;;10.77;5.73;;;;;;;4.90;68.33;100296.00;10423314;28;20053;-66
2023/02/01 01:54:21;;;;;;;8.95;5.32;;;;;;;4.95;67.93;100278.56;10424523;28;20256;-66
2023/02/01 01:59:24;;;;;;;9.25;5.72;;;;;;;4.97;68.06;100270.72;10423221;28;20061;-66
2023/02/01 02:04:26;;;;;;;9.52;5.20;;;;;;;4.89;67.94;100270.13;10423797;28;20417;-66
2023/02/01 02:09:27;;;;;;;11.18;5.55;;;;;;;4.76;68.22;100269.63;10420702;28;20044;-66
2023/02/01 02:14:30;;;;;;;10.35;5.22;;;;;;;4.88;67.93;100290.03;10424196;28;20049;-66
2023/02/01 02:19:31;;;;;;;11.95;5.60;;;;;;;4.86;67.75;100299.56;10423373;28;20052;-66
2023/02/01 02:25:17;;;;;;;10.82;4.93;;;;;;;4.83;67.45;100302.25;10423753;28;20056;-66
2023/02/01 02:30:42;;;;;;;12.15;5.07;;;;;;;4.92;67.08;100308.91;10328451;28;20464;-66
2023/02/01 02:36:05;;;;;;;12.48;5.30;;;;;;;4.99;66.76;100310.41;10423039;28;20136;-66
2023/02/01 03:08:25;;;;;;;10.90;4.10;;;;;;;5.06;65.88;100260.94;10436605;28;20057;-65
2023/02/01 03:13:42;;;;;;;12.88;4.15;;;;;;;5.09;65.23;100262.56;10438368;28;20049;-66
2023/02/01 03:18:44;;;;;;;13.00;3.80;;;;;;;5.14;65.45;100268.44;10437073;28;20045;-66
2023/02/01 03:23:49;;;;;;;17.23;5.05;;;;;;;5.09;65.44;100250.44;10427125;28;20398;-66
2023/02/01 03:29:11;;;;;;;10.43;3.53;;;;;;;5.13;65.10;100257.22;10436607;28;20053;-66
2023/02/01 03:34:13;;;;;;;17.13;3.92;;;;;;;5.16;65.18;100253.69;10435363;28;20484;-66
2023/02/01 03:39:20;;;;;;;15.57;4.53;;;;;;;5.13;65.18;100254.63;10436293;28;20056;-66
2023/02/01 03:44:38;;;;;;;16.23;3.80;;;;;;;5.05;65.17;100250.59;10437195;28;20137;-65
2023/02/01 03:49:44;;;;;;;13.15;3.95;;;;;;;5.05;65.38;100251.44;10434916;28;20052;-66
2023/02/01 03:54:46;;;;;;;14.07;3.83;;;;;;;5.13;65.25;100253.78;10436448;28;20056;-65
2023/02/01 03:59:49;;;;;;;14.25;3.75;;;;;;;5.01;65.48;100251.59;10433642;28;20048;-66
2023/02/01 04:04:51;;;;;;;12.27;4.05;;;;;;;5.01;65.39;100249.00;10431280;28;20052;-66
2023/02/01 04:09:52;;;;;;;14.57;3.65;;;;;;;4.93;65.31;100238.03;10423828;28;20489;-66
2023/02/01 04:14:54;;;;;;;12.35;3.58;;;;;;;4.93;65.13;100249.25;10423473;28;20045;-66
2023/02/01 04:19:56;;;;;;;16.20;3.42;;;;;;;4.88;65.29;100240.78;10425870;28;20040;-66
2023/02/01 04:24:58;;;;;;;13.27;3.35;;;;;;;4.95;64.96;100244.88;10425460;28;20388;-66
2023/02/01 04:29:59;;;;;;;13.43;3.60;;;;;;;4.98;64.95;100246.50;10426884;28;20048;-66
2023/02/01 04:35:01;;;;;;;14.43;3.22;;;;;;;4.99;64.61;100236.09;10424521;28;20503;-66
2023/02/01 04:40:03;;;;;;;18.88;4.07;;;;;;;4.97;64.51;100235.28;10424440;28;20048;-66
2023/02/01 04:45:06;;;;;;;18.50;3.63;;;;;;;4.98;64.41;100228.38;10423522;28;20045;-65
2023/02/01 04:50:10;;;;;;;16.27;3.45;;;;;;;5.03;64.14;100229.91;10425089;28;20049;-67
2023/02/01 04:55:13;;;;;;;16.75;3.55;;;;;;;4.99;64.20;100222.28;10425285;28;20148;-66
2023/02/01 05:00:15;;;;;;;12.20;3.60;;;;;;;4.97;64.13;100250.00;10426413;28;20420;-66
2023/02/01 05:05:16;;;;;;;15.75;3.83;;;;;;;4.84;63.98;100238.34;10422659;28;20040;-66
2023/02/01 05:10:18;;;;;;;18.77;3.60;;;;;;;4.70;63.93;100257.72;10418744;28;20053;-66
2023/02/01 05:15:20;;;;;;;14.13;3.92;;;;;;;4.68;63.90;100243.97;10417072;28;20055;-66
2023/02/01 05:20:21;;;;;;;20.30;4.88;;;;;;;4.52;64.10;100252.25;10426614;28;20099;-66
2023/02/01 05:25:23;;;;;;;18.10;4.13;;;;;;;4.45;63.97;100243.84;10422480;28;20049;-66
2023/02/01 05:30:25;;;;;;;16.20;4.50;;;;;;;4.42;64.10;100235.31;10423436;28;20437;-66
2023/02/01 05:35:27;;;;;;;15.20;4.00;;;;;;;4.41;64.01;100239.63;10424973;28;20049;-66
2023/02/01 05:40:28;;;;;;;18.50;4.10;;;;;;;4.37;64.01;100240.59;10425030;28;20057;-66
2023/02/01 05:45:30;;;;;;;19.10;4.30;;;;;;;4.39;63.94;100235.41;10423212;28;20401;-66
2023/02/01 05:50:32;;;;;;;15.73;4.20;;;;;;;4.27;64.22;100225.41;10425037;28;20056;-66
2023/02/01 05:55:33;;;;;;;21.27;4.38;;;;;;;4.25;63.99;100224.63;10419984;28;20493;-67
2023/02/01 06:00:35;;;;;;;17.73;4.30;;;;;;;4.20;64.06;100218.72;10423410;28;20095;-66
2023/02/01 06:05:36;;;;;;;15.02;4.20;;;;;;;4.20;64.01;100236.81;10424014;28;20060;-66
2023/02/01 06:10:38;;;;;;;18.20;4.60;;;;;;;4.19;64.05;100245.50;10424835;28;20433;-66
2023/02/01 06:15:42;;;;;;;21.70;5.10;;;;;;;4.14;64.00;100232.69;10424871;28;20048;-66
2023/02/01 06:20:43;;;;;;;15.73;4.15;;;;;;;4.08;63.97;100232.88;10423270;28;20049;-66
2023/02/01 06:25:45;;;;;;;18.90;4.50;;;;;;;4.04;63.77;100238.16;10430621;28;20057;-66
2023/02/01 06:30:47;;;;;;;20.60;4.30;;;;;;;3.94;63.48;100231.56;10414767;28;20521;-65
2023/02/01 06:35:48;;;;;;;15.20;4.22;;;;;;;3.99;63.38;100234.84;10431369;28;20045;-65
2023/02/01 06:40:54;;;;;;;15.15;3.70;;;;;;;4.00;62.79;100227.06;10432369;28;20531;-65
2023/02/01 06:46:08;;;;;;;17.08;3.80;;;;;;;4.01;62.49;100239.09;10431763;28;20466;-65
2023/02/01 06:51:25;;;;;;;19.27;5.03;;;;;;;3.98;62.15;100228.00;10432287;28;20158;-65
2023/02/01 06:56:27;;;;;;;17.48;4.70;;;;;;;3.89;62.63;100218.72;10432179;28;20047;-65
2023/02/01 07:01:28;;;;;;;16.63;4.22;;;;;;;3.93;62.48;100227.25;10430499;28;20502;-65
2023/02/01 07:06:30;;;;;;;14.25;3.10;;;;;;;3.84;62.41;100236.97;10430338;28;20048;-65
2023/02/01 07:11:32;;;;;;;16.95;4.03;;;;;;;3.95;62.14;100241.84;10431583;28;20053;-65
2023/02/01 07:16:33;;;;;;;13.38;3.83;;;;;;;3.97;61.97;100239.22;10431190;28;20041;-65
2023/02/01 07:21:35;;;;;;;16.88;4.00;;;;;;;3.77;62.00;100252.69;10430639;28;20119;-65
2023/02/01 07:26:37;;;;;;;17.48;3.85;;;;;;;4.03;61.65;100273.53;10430207;28;20413;-65
2023/02/01 07:31:38;;;;;;;15.52;3.53;;;;;;;4.05;61.36;100274.34;10430543;28;20076;-65
2023/02/01 07:36:41;;;;;;;21.20;4.00;;;;;;;4.07;61.27;100285.50;10430110;28;20053;-65
2023/02/01 07:41:43;;;;;;;22.55;3.97;;;;;;;4.14;61.23;100288.78;10430256;28;20060;-65
2023/02/01 07:46:44;;;;;;;23.38;4.15;;;;;;;4.12;61.18;100277.63;10428562;28;20049;-65
2023/02/01 07:51:46;;;;;;;17.08;3.90;;;;;;;4.28;60.83;100292.69;10429390;28;20053;-65
2023/02/01 07:56:48;;;;;;;14.70;4.07;;;;;;;4.83;60.23;100304.84;10427468;28;20041;-65
2023/02/01 08:01:49;;;;;;;21.63;3.88;;;;;;;4.95;59.54;100301.03;10425301;28;20052;-65
2023/02/01 08:06:51;;;;;;;17.75;3.35;;;;;;;4.95;59.60;100307.06;10425972;28;20049;-65
2023/02/01 08:11:52;;;;;;;14.57;3.75;;;;;;;5.12;59.36;100314.31;10427081;28;20057;-65
2023/02/01 08:16:54;;;;;;;17.08;4.18;;;;;;;5.25;58.96;100308.69;10428264;28;20053;-65
2023/02/01 08:21:56;;;;;;;15.95;3.50;;;;;;;5.48;58.67;100313.13;10428326;28;20366;-65
2023/02/01 08:26:57;;;;;;;14.57;3.40;;;;;;;5.52;58.07;100312.97;10427751;28;20044;-65
2023/02/01 08:31:59;;;;;;;17.17;3.83;;;;;;;5.49;58.20;100323.44;10426906;28;20102;-65
2023/02/01 08:37:01;;;;;;;17.00;3.72;;;;;;;5.70;57.61;100319.28;10421817;28;20186;-66
2023/02/01 08:47:23;;;;;;;17.50;3.72;;;;;;;5.85;57.17;100331.78;10420326;28;20416;-65
2023/02/01 08:52:25;;;;;;;15.10;3.45;;;;;;;5.83;57.14;100323.19;10425324;28;20045;-66
2023/02/01 08:57:26;;;;;;;15.75;3.67;;;;;;;5.78;56.98;100321.66;10420549;28;20051;-65
2023/02/01 09:02:28;;;;;;;16.52;3.83;;;;;;;5.84;56.78;100319.66;10424990;28;20049;-65
2023/02/01 09:07:30;;;;;;;16.88;3.65;;;;;;;5.72;56.72;100319.25;10422412;28;20653;-66
2023/02/01 09:12:33;;;;;;;14.07;3.85;;;;;;;5.72;56.79;100340.84;10426065;28;20060;-66
2023/02/01 09:17:35;;;;;;;12.57;3.50;;;;;;;5.68;56.50;100344.44;10420020;28;20584;-63
2023/02/01 09:22:37;;;;;;;15.05;3.60;;;;;;;5.71;56.93;100346.09;10424459;28;20568;-64
2023/02/01 09:27:38;;;;;;;15.00;3.63;;;;;;;5.68;56.74;100354.81;10421360;28;20045;-63
2023/02/01 09:32:40;;;;;;;16.50;3.70;;;;;;;5.72;56.61;100364.22;10423051;28;20049;-63
2023/02/01 09:37:41;;;;;;;13.73;3.30;;;;;;;5.81;56.63;100360.47;10419287;28;20080;-63
2023/02/01 09:43:19;;;;;;;14.23;3.88;;;;;;;5.94;55.36;100352.19;10416683;28;20063;-63
2023/02/01 09:48:28;;;;;;;13.48;3.45;;;;;;;6.15;55.84;100348.88;10416607;28;20056;-63
2023/02/01 09:53:43;;;;;;;11.82;3.30;;;;;;;6.09;54.99;100346.50;10425381;28;20056;-63
2023/02/01 09:59:01;;;;;;;13.43;3.45;;;;;;;6.17;55.53;100344.47;10424297;28;20569;-63
2023/02/01 10:04:07;;;;;;;24.00;8.20;;;;;;;6.28;55.31;100346.72;10431478;28;20047;-63
2023/02/01 10:09:36;;;;;;;16.08;3.60;;;;;;;6.16;54.80;100341.94;10428908;28;20048;-65
2023/02/01 10:14:57;;;;;;;10.88;3.05;;;;;;;6.09;54.48;100343.91;10427358;28;20041;-63
2023/02/01 10:20:26;;;;;;;13.47;3.47;;;;;;;6.16;55.04;100332.41;10425754;28;20136;-63
2023/02/01 10:25:54;;;;;;;17.98;4.18;;;;;;;6.04;54.82;100335.41;10431179;28;20045;-63
2023/02/01 10:30:58;;;;;;;16.75;4.00;;;;;;;6.11;55.67;100331.72;10427436;28;20623;-63
2023/02/01 10:36:35;;;;;;;13.05;3.58;;;;;;;6.09;54.89;100317.06;10430289;28;20110;-63
2023/02/01 10:41:39;;;;;;;17.02;3.60;;;;;;;6.12;55.72;100311.78;10426636;28;20447;-63
2023/02/01 10:46:41;;;;;;;17.65;3.63;;;;;;;6.23;55.56;100307.91;10426235;28;20053;-63
2023/02/01 10:51:49;;;;;;;12.85;3.20;;;;;;;6.24;55.67;100314.81;10428946;28;20132;-63
2023/02/01 10:56:53;;;;;;;14.85;3.45;;;;;;;6.32;55.55;100299.81;10410775;28;20052;-63
2023/02/01 11:02:05;;;;;;;13.82;3.65;;;;;;;6.30;54.62;100295.56;10421504;28;20049;-63
2023/02/01 11:07:16;;;;;;;13.65;3.53;;;;;;;6.33;54.92;100293.69;10428848;28;20048;-63
2023/02/01 11:12:37;;;;;;;11.88;2.83;;;;;;;6.27;54.64;100278.34;10429137;28;20053;-63
2023/02/01 11:17:43;;;;;;;16.27;3.38;;;;;;;6.72;54.33;100280.97;10426580;28;20412;-63
2023/02/01 11:22:48;;;;;;;18.55;3.78;;;;;;;6.76;54.27;100289.47;10429870;28;20041;-63
2023/02/01 11:27:53;;;;;;;12.57;2.92;;;;;;;6.68;54.40;100282.00;10425597;28;20044;-64
2023/02/01 11:32:56;;;;;;;15.27;3.60;;;;;;;6.79;54.16;100271.19;10426443;28;20059;-64
2023/02/01 11:37:59;;;;;;;13.38;3.40;;;;;;;7.05;54.05;100278.81;10419904;28;20044;-63
2023/02/01 11:43:13;;;;;;;15.25;3.40;;;;;;;7.00;52.92;100270.31;10420325;28;20300;-63
2023/02/01 11:48:16;;;;;;;16.15;3.25;;;;;;;6.94;53.53;100271.41;10423280;28;20048;-63
2023/02/01 11:53:44;;;;;;;15.05;4.10;;;;;;;6.52;54.30;100261.84;10422364;28;20390;-64
2023/02/01 11:59:17;;;;;;;17.10;3.35;;;;;;;6.74;53.92;100249.72;10425112;28;20123;-63
2023/02/01 12:04:39;;;;;;;14.43;3.38;;;;;;;6.82;53.59;100250.25;10426197;28;20405;-63
2023/02/01 12:09:53;;;;;;;15.85;3.80;;;;;;;6.91;53.62;100234.31;10425673;28;20136;-63
2023/02/01 12:15:04;;;;;;;16.15;3.33;;;;;;;7.14;53.19;100242.84;10424155;28;20052;-63
2023/02/01 12:20:50;;;;;;;17.33;3.13;;;;;;;7.27;51.85;100224.16;10421763;28;20417;-63
2023/02/01 12:26:17;;;;;;;16.90;3.35;;;;;;;7.23;52.99;100226.03;10425443;28;20083;-63
2023/02/01 12:31:47;;;;;;;15.55;2.88;;;;;;;7.27;52.75;100221.53;10424609;28;20290;-64
2023/02/01 12:37:08;;;;;;;14.23;3.50;;;;;;;7.20;53.56;100213.19;10411421;28;20056;-63
2023/02/01 12:42:29;;;;;;;19.33;3.58;;;;;;;6.84;53.20;100201.66;10426692;28;20048;-64
2023/02/01 12:47:43;;;;;;;14.70;3.40;;;;;;;6.91;53.63;100200.50;10422960;28;20111;-64
2023/02/01 12:52:51;;;;;;;15.40;3.50;;;;;;;7.04;53.54;100191.31;10423882;28;20052;-64
2023/02/01 12:58:19;;;;;;;15.57;3.10;;;;;;;7.25;52.58;100198.19;10409528;28;20053;-64
2023/02/01 13:03:59;;;;;;;14.82;3.33;;;;;;;7.38;52.51;100209.81;10422199;28;20416;-63
2023/02/01 13:09:18;;;;;;;14.57;3.30;;;;;;;7.44;52.16;100190.47;10413087;28;20056;-64
2023/02/01 13:14:39;;;;;;;27.60;8.38;;;;;;;7.44;51.77;100206.94;10425344;28;20051;-64
2023/02/01 13:20:17;;;;;;;17.98;3.83;;;;;;;7.44;51.93;100206.94;10419918;28;20138;-64
2023/02/01 13:25:30;;;;;;;18.92;3.50;;;;;;;7.50;51.87;100192.81;10422773;28;20401;-64
2023/02/01 13:31:05;;;;;;;19.35;7.93;;;;;;;7.43;51.34;100207.81;10423854;28;20056;-63
2023/02/01 13:36:39;;;;;;;14.55;4.82;;;;;;;7.31;51.68;100195.34;10391853;28;20183;-64
2023/02/01 13:41:50;;;;;;;16.02;4.68;;;;;;;7.26;51.72;100199.06;10422462;28;20049;-63
2023/02/01 13:46:56;;;;;;;14.90;3.07;;;;;;;7.40;52.15;100173.31;10421732;28;20207;-63
2023/02/01 13:51:59;;;;;;;17.33;3.20;;;;;;;7.42;52.09;100179.28;10416192;28;20475;-63
2023/02/01 13:57:03;;;;;;;14.52;2.95;;;;;;;7.50;51.96;100167.63;10417373;28;20199;-63
2023/02/01 14:02:37;;;;;;;11.43;2.80;;;;;;;7.29;51.42;100184.16;10411486;28;20052;-63
2023/02/01 14:08:20;;;;;;;12.80;3.30;;;;;;;7.20;51.99;100176.75;10401238;28;20230;-64
2023/02/01 14:13:28;;;;;;;12.70;2.88;;;;;;;7.14;53.38;100169.22;10411546;28;20051;-64
2023/02/01 14:18:33;;;;;;;16.13;3.10;;;;;;;7.24;53.42;100172.25;10422043;28;20060;-63
2023/02/01 14:23:40;;;;;;;13.05;3.15;;;;;;;7.11;54.03;100171.94;10424291;28;20052;-63
2023/02/01 14:28:51;;;;;;;10.80;3.28;;;;;;;6.78;54.80;100173.31;10417310;28;20056;-64
2023/02/01 14:33:58;;;;;;;11.48;3.10;;;;;;;6.79;55.00;100172.41;10418996;28;20048;-64
2023/02/01 14:39:01;;;;;;;14.93;3.13;;;;;;;6.83;55.22;100168.78;10411172;28;20455;-64
2023/02/01 14:44:02;;;;;;;15.45;3.30;;;;;;;6.92;55.57;100173.59;10424214;28;20417;-64
2023/02/01 14:49:05;;;;;;;13.73;3.17;;;;;;;6.80;56.19;100184.47;10417819;28;20057;-63
2023/02/01 14:54:13;;;;;;;11.40;3.33;;;;;;;6.57;56.52;100181.97;10415732;28;20049;-63
2023/02/01 14:59:17;;;;;;;12.00;2.95;;;;;;;6.53;56.96;100199.41;10424645;28;20409;-64
2023/02/01 15:04:21;;;;;;;16.58;3.35;;;;;;;6.41;57.13;100199.06;10429345;28;20056;-63
2023/02/01 15:09:28;;;;;;;12.48;2.85;;;;;;;6.30;57.62;100209.88;10423483;28;20084;-63
2023/02/01 15:14:33;;;;;;;14.10;3.85;;;;;;;6.21;58.20;100215.34;10427303;28;20424;-63
2023/02/01 15:19:35;;;;;;;15.70;3.58;;;;;;;6.10;58.63;100207.97;10425850;28;20048;-63
2023/02/01 15:24:36;;;;;;;13.27;4.00;;;;;;;6.13;58.46;100218.25;10428599;28;20235;-63
2023/02/01 15:29:38;;;;;;;10.98;3.22;;;;;;;5.96;58.69;100209.41;10427939;28;20365;-63
2023/02/01 15:34:49;;;;;;;13.23;3.13;;;;;;;6.07;58.47;100207.22;10426984;28;20052;-63
2023/02/01 15:40:21;;;;;;;11.15;3.13;;;;;;;6.02;57.75;100198.78;10426242;28;20056;-63
2023/02/01 15:45:29;;;;;;;12.18;2.70;;;;;;;6.19;57.51;100193.78;10424673;28;20056;-64
2023/02/01 15:50:32;;;;;;;15.77;3.10;;;;;;;6.35;57.13;100208.78;10427101;28;20497;-63
2023/02/01 15:55:40;;;;;;;11.60;3.25;;;;;;;6.42;56.96;100203.34;10424092;28;20063;-64
2023/02/01 16:00:51;;;;;;;11.20;2.80;;;;;;;6.45;56.16;100192.84;10419860;28;20072;-63
2023/02/01 16:05:58;;;;;;;13.73;2.78;;;;;;;6.49;56.09;100190.03;10425046;28;20048;-63
2023/02/01 16:11:09;;;;;;;15.88;3.42;;;;;;;6.41;55.76;100186.06;10427019;28;20052;-63
2023/02/01 16:16:13;;;;;;;11.80;3.25;;;;;;;6.49;56.16;100195.25;10424939;28;20057;-63
2023/02/01 16:21:15;;;;;;;14.10;3.03;;;;;;;6.54;55.84;100201.13;10425808;28;20529;-63
2023/02/01 16:26:18;;;;;;;15.77;4.05;;;;;;;6.54;56.21;100202.88;10424597;28;20045;-63
2023/02/01 16:31:23;;;;;;;13.93;3.85;;;;;;;6.64;56.03;100196.41;10425910;28;20190;-63
2023/02/01 16:36:26;;;;;;;12.57;3.80;;;;;;;6.46;56.69;100207.50;10407035;28;20497;-64
2023/02/01 16:41:28;;;;;;;11.90;3.00;;;;;;;6.44;56.97;100207.56;10420642;28;20133;-63
2023/02/01 16:46:36;;;;;;;16.58;3.80;;;;;;;6.30;58.64;100204.66;10422452;28;20060;-63
2023/02/01 16:51:40;;;;;;;15.15;2.90;;;;;;;6.12;59.87;100226.91;10424642;28;20080;-63
2023/02/01 16:56:43;;;;;;;11.82;2.95;;;;;;;6.02;60.03;100232.53;10420158;28;20056;-64
2023/02/01 17:01:45;;;;;;;15.02;3.35;;;;;;;5.87;61.17;100240.84;10422428;28;20056;-64
2023/02/01 17:06:48;;;;;;;16.30;3.50;;;;;;;5.82;61.49;100247.97;10422942;28;20402;-64
2023/02/01 17:11:50;;;;;;;13.05;3.60;;;;;;;5.85;61.93;100248.72;10421848;28;20401;-64
2023/02/01 17:16:52;;;;;;;12.60;3.40;;;;;;;5.66;62.86;100263.22;10413076;28;20044;-64
2023/02/01 17:21:58;;;;;;;15.02;3.20;;;;;;;5.68;63.11;100283.91;10421595;28;20049;-64
2023/02/01 17:27:00;;;;;;;12.68;3.40;;;;;;;5.71;63.07;100281.22;10416222;28;20072;-63
2023/02/01 17:32:02;;;;;;;16.13;3.22;;;;;;;5.57;63.81;100273.06;10422950;28;20048;-64
2023/02/01 17:37:24;;;;;;;15.20;3.55;;;;;;;5.67;64.31;100277.91;10418793;28;20052;-63
2023/02/01 17:42:28;;;;;;;15.02;3.17;;;;;;;5.65;63.63;100287.47;10421123;28;20957;-63
2023/02/01 17:47:32;;;;;;;13.35;3.85;;;;;;;5.58;64.13;100291.16;10420318;28;20362;-63
2023/02/01 17:52:35;;;;;;;13.02;3.53;;;;;;;5.45;64.68;100295.91;10424530;28;20041;-64
2023/02/01 17:57:36;;;;;;;16.00;3.90;;;;;;;5.35;65.42;100293.69;10419690;28;20050;-64
2023/02/01 18:02:38;;;;;;;17.35;4.03;;;;;;;5.33;65.62;100290.31;10422235;28;20060;-64
2023/02/01 18:07:40;;;;;;;15.73;3.20;;;;;;;5.21;66.00;100291.53;10418622;28;20343;-64
2023/02/01 18:12:41;;;;;;;13.65;3.25;;;;;;;5.19;66.14;100282.09;10421782;28;20045;-64
2023/02/01 18:17:43;;;;;;;14.25;3.63;;;;;;;5.08;66.82;100286.81;10419868;28;20064;-64
2023/02/01 18:22:49;;;;;;;15.32;3.70;;;;;;;5.02;67.54;100293.03;10428933;28;20421;-63
2023/02/01 18:27:53;;;;;;;17.73;5.88;;;;;;;5.13;67.02;100314.25;10428232;28;20064;-64
2023/02/01 18:32:55;;;;;;;16.33;3.65;;;;;;;5.18;66.99;100306.34;10421580;28;20049;-66
2023/02/01 18:37:57;;;;;;;21.77;5.88;;;;;;;5.25;66.91;100297.47;10423039;28;20063;-66
2023/02/01 18:42:59;;;;;;;17.10;4.03;;;;;;;5.15;67.46;100283.09;10428421;28;20595;-66
2023/02/01 18:48:02;;;;;;;19.25;4.10;;;;;;;5.05;68.02;100261.81;10428084;28;20057;-66
2023/02/01 18:53:07;;;;;;;18.73;3.97;;;;;;;4.93;68.56;100263.94;10429500;28;20198;-66
2023/02/01 18:58:12;;;;;;;21.08;3.90;;;;;;;4.92;68.49;100272.63;10429143;28;20253;-66
2023/02/01 19:03:15;;;;;;;14.70;3.40;;;;;;;4.95;68.46;100269.91;10427156;28;20521;-66
2023/02/01 19:08:16;;;;;;;18.25;4.10;;;;;;;5.00;68.31;100263.72;10423994;28;20049;-66
2023/02/01 19:13:23;;;;;;;16.60;4.10;;;;;;;5.14;67.62;100277.09;10428531;28;20052;-66
2023/02/01 19:18:25;;;;;;;14.95;3.90;;;;;;;5.17;67.54;100296.84;10422410;28;20623;-66
2023/02/01 19:23:26;;;;;;;14.80;3.50;;;;;;;5.23;67.56;100294.06;10423933;28;20323;-66
2023/02/01 19:28:29;;;;;;;13.05;4.15;;;;;;;5.15;67.73;100286.53;10424581;28;20144;-66
2023/02/01 19:33:30;;;;;;;18.13;3.70;;;;;;;5.14;67.79;100284.88;10425273;28;20052;-66
2023/02/01 19:38:33;;;;;;;14.07;3.30;;;;;;;5.11;67.80;100278.91;10424214;28;20051;-66
2023/02/01 19:43:35;;;;;;;13.80;3.75;;;;;;;5.10;67.60;100288.44;10427074;28;20045;-67
2023/02/01 19:48:37;;;;;;;13.43;3.05;;;;;;;5.15;67.44;100277.91;10421276;28;20053;-66
2023/02/01 19:53:39;;;;;;;14.73;3.40;;;;;;;5.26;67.04;100265.47;10423488;28;20487;-66
2023/02/01 19:58:40;;;;;;;14.07;3.00;;;;;;;5.23;66.92;100275.91;10420635;28;20056;-66
2023/02/01 20:03:42;;;;;;;11.63;2.95;;;;;;;5.27;66.62;100273.19;10415566;28;20041;-66
2023/02/01 20:08:47;;;;;;;9.90;2.83;;;;;;;5.09;66.84;100266.00;10420745;28;20057;-66
2023/02/01 20:13:49;;;;;;;11.48;2.95;;;;;;;5.18;66.45;100268.31;10427206;28;20112;-66
2023/02/01 20:18:50;;;;;;;8.32;2.97;;;;;;;5.09;66.51;100265.16;10423335;28;20037;-66
2023/02/01 20:23:52;;;;;;;9.77;2.60;;;;;;;5.18;66.02;100275.22;10429604;28;20049;-66
2023/02/01 20:28:54;;;;;;;10.27;3.00;;;;;;;5.31;65.69;100279.13;10428823;28;20713;-67
2023/02/01 20:33:58;;;;;;;10.80;2.78;;;;;;;5.14;65.67;100277.09;10424087;28;20500;-66
2023/02/01 20:39:00;;;;;;;12.05;3.28;;;;;;;5.09;65.91;100280.69;10415327;28;20056;-67
2023/02/01 20:44:01;;;;;;;11.60;3.65;;;;;;;5.19;65.52;100292.47;10423125;28;20044;-66
2023/02/01 20:49:03;;;;;;;9.77;2.70;;;;;;;5.17;65.42;100292.53;10422765;28;20041;-66
2023/02/01 20:54:05;;;;;;;10.15;3.20;;;;;;;5.19;65.18;100284.69;10421387;28;20041;-66
2023/02/01 20:59:10;;;;;;;8.93;3.10;;;;;;;5.13;65.25;100271.94;10422762;28;20045;-66
2023/02/01 21:04:12;;;;;;;9.30;3.55;;;;;;;5.03;65.40;100273.13;10420635;28;20049;-66
2023/02/01 21:09:14;;;;;;;12.10;3.35;;;;;;;5.03;65.70;100267.94;10415648;28;20504;-66
2023/02/01 21:14:16;;;;;;;12.05;2.95;;;;;;;5.05;65.58;100268.72;10424659;28;20041;-66
2023/02/01 21:19:18;;;;;;;9.73;3.22;;;;;;;5.13;65.50;100266.75;10418503;28;20053;-66
2023/02/01 21:24:21;;;;;;;14.68;3.22;;;;;;;5.16;65.55;100275.28;10416219;28;20060;-66
2023/02/01 21:29:23;;;;;;;10.07;2.88;;;;;;;5.26;65.29;100273.25;10415141;28;20060;-66
2023/02/01 21:34:24;;;;;;;12.25;3.00;;;;;;;5.20;65.44;100263.06;10415763;28;20059;-66
2023/02/01 21:39:27;;;;;;;12.57;2.95;;;;;;;5.32;65.00;100267.84;10412907;28;20486;-66
2023/02/01 21:44:29;;;;;;;10.27;2.78;;;;;;;5.33;64.89;100280.75;10412798;28;20052;-66
2023/02/01 21:49:31;;;;;;;10.40;2.97;;;;;;;5.38;64.81;100280.63;10411731;28;20049;-66
2023/02/01 21:54:33;;;;;;;10.85;2.70;;;;;;;5.42;64.89;100285.66;10412325;28;20049;-66
2023/02/01 21:59:35;;;;;;;12.32;2.92;;;;;;;5.52;64.58;100275.81;10413811;28;20124;-66
2023/02/01 22:04:36;;;;;;;8.35;2.50;;;;;;;5.42;64.98;100284.81;10411646;28;20037;-66
2023/02/01 22:09:38;;;;;;;11.57;3.35;;;;;;;5.60;65.15;100301.50;10413124;28;20053;-66
2023/02/01 22:14:43;;;;;;;9.65;2.55;;;;;;;5.55;65.87;100310.28;10413736;28;20378;-66
2023/02/01 22:19:45;;;;;;;11.25;2.92;;;;;;;5.43;66.08;100323.66;10413526;28;20044;-66
2023/02/01 22:24:47;;;;;;;11.27;2.95;;;;;;;5.51;65.90;100313.03;10415068;28;20142;-66
2023/02/01 22:29:49;;;;;;;10.23;2.60;;;;;;;5.63;65.68;100324.75;10413085;28;20512;-66
2023/02/01 22:34:50;;;;;;;10.60;2.90;;;;;;;5.72;65.14;100322.69;10409093;28;20728;-66
2023/02/01 22:39:55;;;;;;;9.65;2.90;;;;;;;5.70;65.40;100331.41;10389720;28;20048;-66
2023/02/01 22:44:59;;;;;;;9.05;2.90;;;;;;;5.61;65.67;100332.59;10408403;28;20064;-66
2023/02/01 22:50:01;;;;;;;8.88;3.10;;;;;;;5.46;65.97;100331.34;10407159;28;20350;-66
2023/02/01 22:55:03;;;;;;;11.65;3.05;;;;;;;5.67;65.43;100322.00;10414320;28;20508;-66
2023/02/01 23:00:06;;;;;;;10.82;2.95;;;;;;;5.64;65.76;100327.28;10410475;28;20064;-66
2023/02/01 23:05:08;;;;;;;11.45;3.00;;;;;;;5.78;65.36;100330.25;10419835;28;20615;-66
2023/02/01 23:10:10;;;;;;;11.95;3.55;;;;;;;5.76;65.57;100334.66;10418267;28;20045;-66
2023/02/01 23:15:14;;;;;;;12.90;3.00;;;;;;;5.82;65.32;100331.03;10419035;28;20490;-66
2023/02/01 23:20:17;;;;;;;12.48;2.90;;;;;;;5.75;65.55;100332.13;10416082;28;20103;-66
2023/02/01 23:25:19;;;;;;;10.40;3.20;;;;;;;5.74;65.53;100338.22;10418515;28;20060;-66
2023/02/01 23:30:21;;;;;;;9.63;3.10;;;;;;;5.73;65.64;100342.56;10418144;28;20052;-66
2023/02/01 23:35:22;;;;;;;8.65;2.88;;;;;;;5.81;65.49;100334.50;10421624;28;20513;-66
2023/02/01 23:40:24;;;;;;;7.57;2.65;;;;;;;5.74;65.78;100339.06;10417841;28;20076;-66
2023/02/01 23:45:26;;;;;;;8.25;3.17;;;;;;;5.84;65.38;100334.41;10416000;28;20501;-66
2023/02/01 23:50:28;;;;;;;11.38;3.00;;;;;;;5.80;65.25;100333.66;10418452;28;20064;-66
2023/02/01 23:55:29;;;;;;;8.70;3.00;;;;;;;5.87;65.27;100329.97;10416041;28;20053;-66
